Time;durP1;ratioP1;P1;durP2;ratioP2;P2;SDS_P1;SDS_P2;PMS_P1;PMS_P2;Temp;Humidity;BMP_temperature;BMP_pressure;BME280_temperature;BME280_humidity;BME280_pressure;Samples;Min_cycle;Max_cycle;Signal;HPM_P1;HPM_P2
2021/07/31 00:00:07;;;;;;;8.90;7.18;;;;;;;21.49;75.05;98618.91;5059852;28;20025;-58
2021/07/31 00:02:53;;;;;;;8.05;7.07;;;;;;;21.44;75.43;98615.81;5061546;28;20302;-59
2021/07/31 00:05:39;;;;;;;7.97;7.18;;;;;;;21.40;75.48;98605.66;5056701;28;20036;-59
2021/07/31 00:08:26;;;;;;;8.35;7.50;;;;;;;21.44;75.38;98622.88;5060768;28;20330;-58
2021/07/31 00:11:12;;;;;;;10.45;7.50;;;;;;;21.41;75.56;98623.16;5060430;28;20057;-58
2021/07/31 00:13:58;;;;;;;10.73;9.18;;;;;;;21.24;75.19;98590.31;5061101;28;20052;-57
2021/07/31 00:16:44;;;;;;;8.30;7.40;;;;;;;21.37;75.46;98622.56;5060724;28;20029;-58
2021/07/31 00:19:30;;;;;;;10.23;7.50;;;;;;;21.30;76.10;98616.13;5060943;28;20025;-57
2021/07/31 00:22:16;;;;;;;9.27;7.07;;;;;;;21.29;75.83;98614.47;5060928;28;20025;-58
2021/07/31 00:25:02;;;;;;;10.65;7.32;;;;;;;21.24;75.85;98612.22;5061952;28;20021;-58
2021/07/31 00:27:48;;;;;;;8.75;7.32;;;;;;;21.25;76.06;98608.63;5061693;28;20021;-57
2021/07/31 00:30:34;;;;;;;7.78;7.07;;;;;;;21.18;75.99;98610.09;5064599;28;20051;-57
2021/07/31 00:33:20;;;;;;;7.93;7.13;;;;;;;21.23;76.40;98613.16;5064817;28;20028;-58
2021/07/31 00:36:06;;;;;;;7.88;7.15;;;;;;;21.21;75.43;98615.94;5064068;28;20330;-57
2021/07/31 00:38:51;;;;;;;10.15;7.25;;;;;;;21.13;75.27;98610.47;5064602;28;20096;-58
2021/07/31 00:41:37;;;;;;;9.15;7.20;;;;;;;21.08;75.63;98610.03;5063703;28;20056;-58
2021/07/31 00:44:23;;;;;;;9.80;6.82;;;;;;;21.05;75.61;98605.00;5065000;28;20056;-59
2021/07/31 00:47:09;;;;;;;8.13;7.32;;;;;;;21.07;75.68;98604.88;5064386;28;20039;-58
2021/07/31 00:49:56;;;;;;;8.20;7.20;;;;;;;21.01;75.98;98604.41;5064397;28;20021;-58
2021/07/31 00:52:42;;;;;;;10.98;7.65;;;;;;;20.97;76.09;98608.25;5064926;28;20028;-58
2021/07/31 00:55:29;;;;;;;9.55;7.22;;;;;;;20.86;76.17;98598.63;5064405;28;20064;-58
2021/07/31 00:58:17;;;;;;;7.95;7.15;;;;;;;20.59;76.27;98567.44;5064305;28;20029;-58
2021/07/31 01:01:03;;;;;;;7.78;7.00;;;;;;;20.90;76.05;98611.53;5064929;28;20051;-59
2021/07/31 01:03:49;;;;;;;8.15;7.38;;;;;;;20.82;76.44;98617.41;5063989;28;20333;-58
2021/07/31 01:06:35;;;;;;;8.02;7.25;;;;;;;20.82;76.21;98626.16;5062242;28;20032;-59
2021/07/31 01:09:21;;;;;;;9.27;6.93;;;;;;;20.85;76.54;98620.63;5064144;28;20025;-58
2021/07/31 01:12:09;;;;;;;8.07;7.10;;;;;;;20.95;75.95;98619.88;5062982;28;20057;-58
2021/07/31 01:14:55;;;;;;;9.85;6.93;;;;;;;20.93;75.95;98619.16;5062371;28;20375;-58
2021/07/31 01:17:41;;;;;;;7.78;6.82;;;;;;;20.90;75.86;98615.00;5064721;28;20033;-57
2021/07/31 01:20:26;;;;;;;9.20;7.13;;;;;;;20.91;75.79;98618.44;5058387;28;20037;-58
2021/07/31 01:23:12;;;;;;;11.10;7.03;;;;;;;20.90;75.85;98622.06;5064011;28;20021;-57
2021/07/31 01:25:58;;;;;;;11.32;7.22;;;;;;;20.94;75.56;98618.22;5063743;28;20226;-57
2021/07/31 01:28:44;;;;;;;8.70;6.82;;;;;;;20.85;75.93;98615.38;5063521;28;20091;-57
2021/07/31 01:31:30;;;;;;;7.72;6.90;;;;;;;20.80;75.99;98622.78;5064637;28;20340;-58
2021/07/31 01:34:16;;;;;;;9.75;6.95;;;;;;;20.91;76.08;98619.28;5063563;28;20060;-58
2021/07/31 01:37:02;;;;;;;10.13;7.38;;;;;;;20.84;75.62;98613.69;5063375;28;20198;-58
2021/07/31 01:39:48;;;;;;;10.80;7.20;;;;;;;20.85;75.53;98612.75;5062790;28;20033;-57
2021/07/31 01:42:34;;;;;;;9.48;7.70;;;;;;;20.82;75.52;98612.13;5062844;28;20025;-57
2021/07/31 01:45:20;;;;;;;8.73;7.10;;;;;;;20.87;75.37;98617.88;5057198;28;20095;-57
2021/07/31 01:48:06;;;;;;;8.70;7.28;;;;;;;20.83;75.55;98630.44;5063454;28;20092;-57
2021/07/31 01:50:52;;;;;;;7.88;6.85;;;;;;;20.80;75.38;98619.34;5060619;28;20225;-58
2021/07/31 01:53:38;;;;;;;9.68;6.82;;;;;;;20.84;75.46;98623.41;5063101;28;20028;-57
2021/07/31 01:56:25;;;;;;;7.53;6.70;;;;;;;20.77;75.50;98622.22;5057806;28;20057;-57
2021/07/31 01:59:11;;;;;;;9.25;6.80;;;;;;;20.78;75.34;98624.72;5062747;28;20048;-57
2021/07/31 02:01:56;;;;;;;10.20;6.82;;;;;;;20.77;75.82;98620.41;5063431;28;20321;-58
2021/07/31 02:04:42;;;;;;;9.00;6.85;;;;;;;20.53;76.12;98620.56;5058761;28;20037;-58
2021/07/31 02:07:28;;;;;;;8.50;6.55;;;;;;;20.55;76.41;98636.22;5063145;28;20032;-59
2021/07/31 02:10:14;;;;;;;12.25;8.05;;;;;;;20.60;76.43;98628.81;5062583;28;20025;-57
2021/07/31 02:13:00;;;;;;;8.07;7.18;;;;;;;20.60;76.00;98629.63;5061758;28;20045;-58
2021/07/31 02:15:46;;;;;;;8.30;6.78;;;;;;;20.58;76.24;98634.19;5062689;28;20344;-58
2021/07/31 02:18:32;;;;;;;9.07;7.57;;;;;;;20.59;76.19;98627.13;5062877;28;20098;-57
2021/07/31 02:21:18;;;;;;;8.65;7.00;;;;;;;20.61;76.32;98627.84;5063523;28;20348;-57
2021/07/31 02:24:04;;;;;;;9.48;7.30;;;;;;;20.62;76.26;98627.72;5061101;28;20032;-58
2021/07/31 02:26:50;;;;;;;7.60;6.70;;;;;;;20.58;76.22;98628.06;5059471;28;20060;-59
2021/07/31 02:29:36;;;;;;;11.52;7.40;;;;;;;20.59;76.05;98635.03;5058125;28;20100;-58
2021/07/31 02:32:22;;;;;;;13.80;7.40;;;;;;;20.62;76.44;98637.41;5062784;28;20372;-57
2021/07/31 02:35:09;;;;;;;8.98;6.78;;;;;;;20.63;75.92;98634.63;5061928;28;20032;-58
2021/07/31 02:37:55;;;;;;;10.82;7.55;;;;;;;20.56;76.21;98636.09;5062159;28;20032;-57
2021/07/31 02:40:41;;;;;;;9.63;7.13;;;;;;;20.63;75.57;98639.09;5061285;28;20025;-58
2021/07/31 02:43:27;;;;;;;7.93;6.60;;;;;;;20.68;75.48;98636.97;5062350;28;20096;-58
2021/07/31 02:46:13;;;;;;;10.23;7.15;;;;;;;20.84;74.73;98634.75;5062015;28;20044;-57
2021/07/31 02:48:59;;;;;;;10.85;6.45;;;;;;;20.97;73.78;98639.03;5062556;28;20143;-57
2021/07/31 02:51:45;;;;;;;8.52;6.03;;;;;;;21.07;73.88;98644.38;5062202;28;20063;-57
2021/07/31 02:54:31;;;;;;;7.32;6.25;;;;;;;21.06;73.74;98643.53;5062115;28;20047;-57
2021/07/31 02:57:17;;;;;;;8.88;6.70;;;;;;;20.88;74.29;98640.63;5062210;28;20218;-58
2021/07/31 03:00:04;;;;;;;9.55;6.85;;;;;;;21.12;73.84;98643.03;5061787;28;20064;-58
2021/07/31 03:02:50;;;;;;;9.75;6.95;;;;;;;21.13;73.10;98638.59;5062099;28;20033;-58
2021/07/31 03:05:35;;;;;;;11.13;6.80;;;;;;;21.11;73.24;98640.53;5057607;28;20051;-58
2021/07/31 03:08:21;;;;;;;13.60;8.60;;;;;;;21.10;73.09;98644.13;5062275;28;20044;-58
2021/07/31 03:11:08;;;;;;;8.40;6.25;;;;;;;21.16;72.45;98640.97;5060738;28;20050;-59
2021/07/31 03:13:54;;;;;;;9.02;7.65;;;;;;;21.16;73.04;98648.88;5061699;28;20040;-58
2021/07/31 03:16:40;;;;;;;8.05;6.47;;;;;;;21.05;73.25;98636.59;5061606;28;20017;-58
2021/07/31 03:19:26;;;;;;;9.18;6.47;;;;;;;21.12;72.51;98634.28;5061280;28;20222;-58
2021/07/31 03:22:12;;;;;;;6.75;6.07;;;;;;;21.23;72.01;98650.03;5062143;28;20025;-57
2021/07/31 03:24:57;;;;;;;10.98;6.43;;;;;;;21.23;72.62;98643.94;5058662;28;20051;-57
2021/07/31 03:27:43;;;;;;;8.93;5.85;;;;;;;21.38;72.07;98642.69;5062541;28;20068;-58
2021/07/31 03:30:29;;;;;;;8.10;6.13;;;;;;;21.40;71.32;98650.44;5061573;28;20051;-58
2021/07/31 03:33:15;;;;;;;8.95;5.88;;;;;;;21.51;70.91;98655.66;5061384;28;20029;-58
2021/07/31 03:36:01;;;;;;;8.60;5.95;;;;;;;21.66;70.42;98650.91;5061247;28;20086;-58
2021/07/31 03:38:47;;;;;;;6.10;5.50;;;;;;;21.70;69.99;98644.44;5061377;28;20027;-58
2021/07/31 03:41:33;;;;;;;6.55;5.20;;;;;;;21.81;69.26;98649.63;5061373;28;20021;-57
2021/07/31 03:44:19;;;;;;;7.60;5.85;;;;;;;21.88;68.82;98657.84;5055979;28;20029;-57
2021/07/31 03:47:04;;;;;;;7.57;5.78;;;;;;;21.83;68.53;98649.50;5061955;28;20033;-58
2021/07/31 03:49:50;;;;;;;10.25;5.68;;;;;;;21.80;68.98;98652.41;5060095;28;20021;-58
2021/07/31 03:52:36;;;;;;;7.63;5.80;;;;;;;21.80;68.67;98647.94;5056044;28;20036;-58
2021/07/31 03:55:23;;;;;;;6.75;5.40;;;;;;;21.88;67.66;98652.59;5054174;28;20092;-58
2021/07/31 03:58:09;;;;;;;6.25;5.65;;;;;;;21.93;67.76;98655.66;5060845;28;20110;-59
2021/07/31 04:00:55;;;;;;;8.07;5.65;;;;;;;21.81;68.43;98647.00;5061319;28;20028;-59
2021/07/31 04:03:41;;;;;;;8.40;5.82;;;;;;;21.82;67.84;98661.00;5062387;28;20029;-58
2021/07/31 04:06:27;;;;;;;8.27;5.70;;;;;;;21.85;67.97;98656.31;5065943;28;20028;-58
2021/07/31 04:09:12;;;;;;;8.30;5.45;;;;;;;21.94;68.29;98659.97;5065953;28;20289;-58
2021/07/31 04:11:58;;;;;;;8.40;6.10;;;;;;;21.94;67.55;98659.97;5065312;28;20064;-59
2021/07/31 04:14:44;;;;;;;5.78;5.25;;;;;;;21.93;67.67;98654.81;5065220;28;20035;-58
2021/07/31 04:17:30;;;;;;;6.68;5.47;;;;;;;22.10;67.09;98651.56;5065189;28;20096;-57
2021/07/31 04:20:16;;;;;;;8.98;6.07;;;;;;;22.13;66.94;98661.84;5065385;28;20025;-58
2021/07/31 04:23:02;;;;;;;6.60;5.45;;;;;;;22.20;66.59;98659.53;5064956;28;20033;-57
2021/07/31 04:25:48;;;;;;;8.18;5.65;;;;;;;22.15;66.45;98653.84;5065312;28;20064;-57
2021/07/31 04:28:33;;;;;;;9.57;5.22;;;;;;;22.25;66.96;98659.97;5065342;28;20028;-58
2021/07/31 04:31:19;;;;;;;5.88;5.28;;;;;;;22.33;65.43;98661.97;5064631;28;20074;-58
2021/07/31 04:34:05;;;;;;;7.22;5.47;;;;;;;22.44;65.72;98669.78;5065429;28;20020;-58
2021/07/31 04:36:51;;;;;;;8.85;5.50;;;;;;;22.49;64.98;98679.94;5064007;28;20040;-61
2021/07/31 04:39:37;;;;;;;6.65;5.55;;;;;;;22.56;64.44;98675.78;5064070;28;20029;-60
2021/07/31 04:42:23;;;;;;;7.45;5.78;;;;;;;22.57;63.76;98673.03;5065278;28;20310;-59
2021/07/31 04:45:09;;;;;;;7.97;5.60;;;;;;;22.48;64.32;98667.72;5064913;28;20028;-59
2021/07/31 04:47:55;;;;;;;6.65;5.55;;;;;;;22.63;63.63;98665.53;5064660;28;20187;-57
2021/07/31 04:50:41;;;;;;;6.68;5.47;;;;;;;22.61;64.28;98668.31;5064684;28;20029;-59
2021/07/31 04:53:28;;;;;;;9.13;5.18;;;;;;;22.69;64.14;98663.19;5064423;28;20102;-58
2021/07/31 04:56:13;;;;;;;8.10;5.00;;;;;;;22.72;63.17;98654.16;5064426;28;20127;-57
2021/07/31 04:58:59;;;;;;;10.52;5.13;;;;;;;23.03;62.77;98656.69;5064270;28;20020;-57
2021/07/31 05:01:45;;;;;;;6.75;5.35;;;;;;;23.23;61.28;98660.19;5064954;28;20067;-57
2021/07/31 05:04:31;;;;;;;8.10;4.95;;;;;;;23.36;60.87;98660.78;5058775;28;20025;-58
2021/07/31 05:07:17;;;;;;;6.97;4.93;;;;;;;23.50;61.25;98659.50;5063761;28;20028;-59
2021/07/31 05:10:03;;;;;;;7.63;4.97;;;;;;;23.58;60.58;98649.03;5064750;28;20021;-58
2021/07/31 05:12:49;;;;;;;5.78;5.10;;;;;;;23.65;58.78;98657.25;5064103;28;20156;-58
2021/07/31 05:15:37;;;;;;;5.60;4.72;;;;;;;23.76;59.66;98658.91;5059246;28;20059;-58
2021/07/31 05:18:23;;;;;;;5.07;4.35;;;;;;;23.75;58.27;98646.66;5060662;28;20036;-57
2021/07/31 05:21:09;;;;;;;6.53;4.60;;;;;;;23.81;56.74;98655.81;5063327;28;20024;-57
2021/07/31 05:23:55;;;;;;;5.68;4.28;;;;;;;24.18;57.14;98653.22;5062490;28;20060;-58
2021/07/31 05:26:41;;;;;;;5.82;5.00;;;;;;;24.41;55.86;98648.41;5062965;28;20021;-58
2021/07/31 05:29:27;;;;;;;5.18;4.68;;;;;;;24.77;55.66;98650.28;5062794;28;20043;-57
2021/07/31 05:32:12;;;;;;;7.70;4.80;;;;;;;24.91;55.10;98654.25;5063950;28;20103;-58
2021/07/31 05:34:58;;;;;;;5.13;4.63;;;;;;;24.83;53.53;98655.00;5062347;28;20025;-57
2021/07/31 05:37:44;;;;;;;7.15;4.80;;;;;;;24.77;54.87;98653.78;5064269;28;20029;-57
2021/07/31 05:40:30;;;;;;;8.90;5.15;;;;;;;24.71;54.88;98653.53;5062696;28;20025;-57
2021/07/31 05:43:16;;;;;;;6.20;4.90;;;;;;;24.75;54.33;98655.72;5063095;28;20025;-57
2021/07/31 05:46:02;;;;;;;6.10;4.63;;;;;;;24.88;54.54;98654.53;5064678;28;20033;-57
2021/07/31 05:48:50;;;;;;;5.43;4.43;;;;;;;25.02;54.45;98650.56;5063675;28;20021;-58
2021/07/31 05:51:37;;;;;;;5.90;4.55;;;;;;;24.78;53.02;98614.88;5057704;28;20083;-57
2021/07/31 05:54:22;;;;;;;5.80;4.47;;;;;;;24.88;53.53;98651.91;5063489;28;20021;-57
2021/07/31 05:57:08;;;;;;;6.85;5.05;;;;;;;24.88;53.25;98651.91;5062929;28;20025;-56
2021/07/31 05:59:54;;;;;;;5.10;4.38;;;;;;;24.87;53.22;98658.16;5062072;28;20028;-57
2021/07/31 06:02:40;;;;;;;5.20;4.70;;;;;;;24.89;52.22;98646.44;5062505;28;20132;-58
2021/07/31 06:05:27;;;;;;;8.00;4.40;;;;;;;24.83;52.83;98657.66;5058259;28;20111;-58
2021/07/31 06:08:12;;;;;;;6.88;5.00;;;;;;;24.72;51.27;98649.91;5062747;28;20037;-59
2021/07/31 06:11:03;;;;;;;5.25;4.70;;;;;;;24.71;53.37;98651.75;5062785;28;20047;-57
2021/07/31 06:13:49;;;;;;;8.27;4.88;;;;;;;24.76;52.96;98648.63;5063555;28;20102;-57
2021/07/31 06:16:35;;;;;;;7.45;4.57;;;;;;;24.85;52.82;98653.03;5062918;28;20032;-57
2021/07/31 06:19:21;;;;;;;7.53;4.65;;;;;;;24.99;53.46;98659.63;5062479;28;20209;-57
2021/07/31 06:22:08;;;;;;;8.85;4.95;;;;;;;24.90;53.69;98648.13;5064101;28;20074;-57
2021/07/31 06:24:53;;;;;;;5.78;5.20;;;;;;;24.90;53.68;98653.41;5063085;28;20025;-58
2021/07/31 06:27:39;;;;;;;5.47;4.30;;;;;;;24.78;53.24;98628.13;5062211;28;20047;-58
2021/07/31 06:30:26;;;;;;;8.15;5.10;;;;;;;25.05;53.13;98645.75;5056773;28;20025;-58
2021/07/31 06:33:13;;;;;;;7.53;5.25;;;;;;;25.05;52.59;98643.13;5061983;28;20036;-59
2021/07/31 06:35:58;;;;;;;5.50;4.68;;;;;;;25.09;52.16;98647.13;5063613;28;20039;-59
2021/07/31 06:38:45;;;;;;;9.52;5.10;;;;;;;25.24;52.38;98644.78;5062393;28;20028;-60
2021/07/31 06:41:31;;;;;;;6.35;4.90;;;;;;;25.31;51.92;98634.38;5062053;28;20024;-59
2021/07/31 06:44:17;;;;;;;7.13;4.50;;;;;;;25.34;51.47;98647.41;5054613;28;20033;-58
2021/07/31 06:47:03;;;;;;;5.68;4.32;;;;;;;25.41;51.24;98640.50;5062968;28;20029;-59
2021/07/31 06:49:49;;;;;;;7.63;4.45;;;;;;;25.44;51.42;98639.31;5062398;28;20040;-58
2021/07/31 06:52:34;;;;;;;6.15;4.75;;;;;;;25.38;51.90;98643.41;5062443;28;20037;-57
2021/07/31 06:55:20;;;;;;;5.70;4.88;;;;;;;25.38;51.73;98646.06;5062186;28;20028;-57
2021/07/31 06:58:06;;;;;;;6.43;4.95;;;;;;;25.31;51.78;98643.22;5062226;28;20040;-60
2021/07/31 07:00:53;;;;;;;5.38;4.88;;;;;;;25.47;51.92;98642.50;5062132;28;20037;-59
2021/07/31 07:03:41;;;;;;;8.35;5.10;;;;;;;25.51;51.96;98640.41;5062749;28;20377;-60
2021/07/31 07:06:26;;;;;;;10.90;5.55;;;;;;;25.53;51.71;98642.91;5063018;28;20098;-58
2021/07/31 07:09:12;;;;;;;10.15;5.70;;;;;;;25.47;50.73;98644.34;5060370;28;20045;-58
2021/07/31 07:11:58;;;;;;;7.95;5.13;;;;;;;25.38;51.25;98634.66;5061675;28;20048;-59
2021/07/31 07:14:44;;;;;;;7.10;4.78;;;;;;;25.26;50.95;98634.84;5061647;28;20029;-60
2021/07/31 07:17:30;;;;;;;8.55;4.80;;;;;;;25.19;50.29;98649.69;5062244;28;20025;-59
2021/07/31 07:20:16;;;;;;;7.40;4.38;;;;;;;25.43;49.79;98654.41;5062258;28;20032;-57
2021/07/31 07:23:01;;;;;;;6.50;4.75;;;;;;;25.46;49.24;98642.66;5061611;28;20099;-58
2021/07/31 07:25:47;;;;;;;8.27;4.60;;;;;;;25.41;47.69;98647.59;5058424;28;20070;-57
2021/07/31 07:28:33;;;;;;;6.68;4.20;;;;;;;25.34;47.47;98620.88;5061198;28;20036;-56
2021/07/31 07:31:19;;;;;;;6.18;4.03;;;;;;;25.47;47.04;98655.78;5061462;28;20032;-57
2021/07/31 07:34:05;;;;;;;7.18;4.15;;;;;;;25.48;48.02;98664.53;5061559;28;20029;-56
2021/07/31 07:36:51;;;;;;;6.30;4.03;;;;;;;25.46;47.27;98654.09;5060833;28;20021;-59
2021/07/31 07:39:37;;;;;;;11.23;4.68;;;;;;;25.39;47.54;98662.84;5056149;28;20029;-58
2021/07/31 07:42:23;;;;;;;4.40;3.88;;;;;;;25.38;46.46;98656.69;5061003;28;20294;-57
2021/07/31 07:45:09;;;;;;;7.68;4.57;;;;;;;25.46;47.80;98647.97;5060662;28;20308;-57
2021/07/31 07:47:55;;;;;;;6.68;3.80;;;;;;;25.46;48.00;98663.88;5060529;28;20028;-58
2021/07/31 07:50:41;;;;;;;9.50;4.10;;;;;;;25.67;48.00;98661.72;5061153;28;20033;-58
2021/07/31 07:53:27;;;;;;;7.07;3.92;;;;;;;25.74;47.68;98664.59;5061142;28;20283;-58
2021/07/31 07:56:13;;;;;;;9.00;4.00;;;;;;;25.61;47.67;98667.66;5062267;28;20330;-59
2021/07/31 07:59:00;;;;;;;7.25;4.00;;;;;;;25.50;45.47;98665.25;5060905;28;20129;-58
2021/07/31 08:01:46;;;;;;;4.72;3.67;;;;;;;25.49;45.44;98660.91;5060863;28;20048;-57
2021/07/31 08:04:33;;;;;;;10.75;4.00;;;;;;;25.49;44.90;98661.72;5056030;28;20033;-59
2021/07/31 08:07:19;;;;;;;11.90;3.92;;;;;;;25.51;46.14;98653.66;5060338;28;20083;-57
2021/07/31 08:10:06;;;;;;;14.48;3.70;;;;;;;25.37;46.30;98660.34;5061114;28;20028;-56
2021/07/31 08:12:52;;;;;;;4.53;3.47;;;;;;;25.39;44.97;98662.84;5060701;28;20057;-56
2021/07/31 08:15:37;;;;;;;4.43;3.55;;;;;;;25.36;45.39;98660.50;5061087;28;20025;-56
2021/07/31 08:18:23;;;;;;;9.35;4.45;;;;;;;25.30;44.58;98661.91;5062264;28;20020;-55
2021/07/31 08:21:09;;;;;;;7.07;3.90;;;;;;;25.30;45.33;98672.50;5061502;28;20272;-56
2021/07/31 08:23:56;;;;;;;6.97;3.70;;;;;;;25.41;45.10;98676.75;5061127;28;20040;-56
2021/07/31 08:26:43;;;;;;;5.80;3.33;;;;;;;25.42;44.56;98665.16;5061165;28;20025;-55
2021/07/31 08:29:29;;;;;;;5.13;3.50;;;;;;;25.60;44.08;98668.63;5061610;28;20025;-55
2021/07/31 08:32:15;;;;;;;4.03;3.03;;;;;;;25.74;44.29;98671.69;5060609;28;20021;-55
2021/07/31 08:35:01;;;;;;;6.22;3.75;;;;;;;25.78;44.20;98681.00;5061542;28;20102;-55
2021/07/31 08:37:48;;;;;;;5.20;3.80;;;;;;;25.83;43.34;98671.59;5060661;28;20040;-56
2021/07/31 08:40:34;;;;;;;7.30;3.70;;;;;;;25.92;43.83;98677.78;5061082;28;20221;-56
2021/07/31 08:43:20;;;;;;;5.32;4.22;;;;;;;25.91;44.18;98670.81;5060743;28;20301;-56
2021/07/31 08:46:08;;;;;;;7.28;4.88;;;;;;;25.89;44.57;98662.19;5060156;28;20051;-55
2021/07/31 08:48:55;;;;;;;5.93;3.60;;;;;;;26.04;45.00;98666.94;5060856;28;20017;-56
2021/07/31 08:51:45;;;;;;;10.68;4.07;;;;;;;26.31;44.32;98668.59;5064270;28;20029;-56
2021/07/31 08:54:32;;;;;;;6.63;3.35;;;;;;;26.40;43.24;98677.41;5064158;28;20061;-57
2021/07/31 08:57:18;;;;;;;6.55;3.40;;;;;;;26.38;43.88;98666.97;5064383;28;20033;-57
2021/07/31 09:00:05;;;;;;;7.80;3.70;;;;;;;26.41;42.20;98671.94;5064465;28;20021;-56
2021/07/31 09:02:51;;;;;;;12.43;3.92;;;;;;;26.44;42.54;98684.06;5064182;28;20031;-56
2021/07/31 09:05:41;;;;;;;6.60;3.60;;;;;;;26.17;42.38;98672.66;5062426;28;20041;-57
2021/07/31 09:08:27;;;;;;;6.07;3.60;;;;;;;26.30;43.05;98672.22;5059161;28;20341;-56
2021/07/31 09:11:14;;;;;;;8.35;3.95;;;;;;;26.35;43.07;98670.75;5063896;28;20053;-57
2021/07/31 09:14:11;;;;;;;7.20;4.03;;;;;;;26.39;42.49;98665.13;5063845;28;20237;-57
2021/07/31 09:16:58;;;;;;;12.85;3.97;;;;;;;26.50;44.04;98670.97;5063691;28;20033;-57
2021/07/31 09:19:44;;;;;;;7.55;3.58;;;;;;;26.56;43.54;98672.16;5064077;28;20029;-57
2021/07/31 09:22:30;;;;;;;6.05;3.88;;;;;;;26.57;43.40;98678.31;5063234;28;20078;-55
2021/07/31 09:25:17;;;;;;;7.82;3.72;;;;;;;26.56;43.02;98671.31;5058530;28;20033;-56
2021/07/31 09:28:18;;;;;;;9.75;3.50;;;;;;;26.52;42.52;98679.63;5064048;28;20092;-56
2021/07/31 09:31:04;;;;;;;6.78;3.60;;;;;;;26.64;42.17;98664.22;5063221;28;20029;-57
2021/07/31 09:33:51;;;;;;;5.95;3.55;;;;;;;26.59;42.44;98653.22;5064445;28;20269;-56
2021/07/31 09:36:41;;;;;;;6.93;3.50;;;;;;;26.82;42.56;98665.94;5059238;28;20291;-57
2021/07/31 09:39:47;;;;;;;5.53;3.50;;;;;;;26.59;41.79;98620.53;5063741;28;20029;-56
2021/07/31 09:42:35;;;;;;;4.88;3.30;;;;;;;26.65;42.47;98643.78;5063942;28;20025;-56
2021/07/31 09:45:31;;;;;;;8.98;3.67;;;;;;;26.53;42.40;98645.91;5063546;28;20048;-57
2021/07/31 09:48:17;;;;;;;8.55;3.13;;;;;;;26.92;41.58;98676.44;5063462;28;20032;-56
2021/07/31 09:51:03;;;;;;;7.53;3.72;;;;;;;27.02;40.68;98672.63;5063457;28;20072;-56
2021/07/31 09:53:49;;;;;;;6.53;3.60;;;;;;;26.95;40.47;98666.31;5063269;28;20111;-69
2021/07/31 09:56:57;;;;;;;5.90;3.58;;;;;;;26.68;41.03;98641.69;5058841;28;20033;-60
2021/07/31 09:59:48;;;;;;;8.23;3.33;;;;;;;26.80;39.42;98681.22;5059666;28;20226;-61
2021/07/31 10:02:34;;;;;;;12.65;3.47;;;;;;;26.83;40.24;98679.06;5062261;28;20020;-57
2021/07/31 10:05:20;;;;;;;7.72;3.22;;;;;;;26.96;39.43;98675.94;5063186;28;20024;-57
2021/07/31 10:08:07;;;;;;;5.85;3.00;;;;;;;27.03;39.38;98678.78;5063160;28;20037;-56
2021/07/31 10:10:53;;;;;;;5.15;3.45;;;;;;;26.95;39.20;98663.66;5062482;28;20033;-57
2021/07/31 10:13:40;;;;;;;12.65;3.53;;;;;;;27.01;39.41;98670.16;5061594;28;20092;-57
2021/07/31 10:16:26;;;;;;;6.03;3.35;;;;;;;26.86;38.89;98660.16;5055533;28;20317;-57
2021/07/31 10:19:12;;;;;;;4.32;3.08;;;;;;;26.88;39.71;98667.97;5063244;28;20710;-57
2021/07/31 10:21:58;;;;;;;9.18;3.42;;;;;;;26.93;39.15;98672.78;5061152;28;20092;-56
2021/07/31 10:24:53;;;;;;;4.70;3.28;;;;;;;26.87;39.20;98683.06;5063369;28;20310;-69
2021/07/31 10:27:39;;;;;;;7.93;3.28;;;;;;;26.91;39.55;98669.44;5062840;28;20032;-57
2021/07/31 10:30:34;;;;;;;4.35;3.40;;;;;;;26.68;39.26;98628.41;5062498;28;20025;-59
2021/07/31 10:33:42;;;;;;;5.15;3.30;;;;;;;26.82;39.69;98684.53;5062157;28;20028;-64
2021/07/31 10:36:30;;;;;;;7.57;3.35;;;;;;;26.65;39.49;98639.31;5062557;28;20012;-62
2021/07/31 10:39:25;;;;;;;3.88;3.25;;;;;;;26.87;40.62;98682.25;5062965;28;20230;-66
2021/07/31 10:42:10;;;;;;;4.28;3.05;;;;;;;26.86;40.10;98678.75;5062387;28;20055;-66
2021/07/31 10:45:15;;;;;;;6.10;3.50;;;;;;;26.85;40.00;98684.22;5060893;28;20048;-66
2021/07/31 10:48:08;;;;;;;5.88;3.25;;;;;;;26.80;40.23;98679.38;5062367;28;20066;-66
2021/07/31 10:50:54;;;;;;;7.13;3.65;;;;;;;26.82;40.48;98671.25;5062365;28;20348;-67
2021/07/31 10:53:48;;;;;;;8.55;3.10;;;;;;;26.89;40.66;98672.25;5062066;28;20033;-67
2021/07/31 10:56:54;;;;;;;5.25;2.80;;;;;;;26.92;40.18;98687.91;5057038;28;20135;-67
2021/07/31 10:59:40;;;;;;;5.18;3.00;;;;;;;26.84;39.77;98678.06;5062083;28;20100;-66
2021/07/31 11:02:37;;;;;;;4.45;3.22;;;;;;;27.03;39.55;98689.41;5062266;28;20257;-66
2021/07/31 11:05:23;;;;;;;3.90;2.97;;;;;;;26.95;39.88;98686.72;5062321;28;20029;-68
2021/07/31 11:08:08;;;;;;;6.38;2.95;;;;;;;26.90;39.78;98683.75;5061719;28;20021;-65
2021/07/31 11:10:56;;;;;;;6.05;3.20;;;;;;;27.00;39.97;98690.56;5061541;28;20024;-67
2021/07/31 11:13:42;;;;;;;6.80;3.10;;;;;;;26.93;39.60;98686.06;5061586;28;20036;-67
2021/07/31 11:16:28;;;;;;;7.20;3.15;;;;;;;26.95;39.67;98686.72;5059549;28;20104;-64
2021/07/31 11:19:13;;;;;;;5.72;3.20;;;;;;;26.97;39.62;98690.06;5061483;28;20029;-65
2021/07/31 11:21:59;;;;;;;3.47;3.05;;;;;;;27.00;39.05;98689.75;5060282;28;20033;-64
2021/07/31 11:24:46;;;;;;;6.80;3.30;;;;;;;27.01;39.01;98684.25;5061447;28;20082;-65
2021/07/31 11:27:32;;;;;;;4.75;2.90;;;;;;;26.90;38.99;98695.19;5060939;28;20033;-66
2021/07/31 11:30:17;;;;;;;7.20;3.10;;;;;;;26.83;38.76;98688.88;5061030;28;20087;-64
2021/07/31 11:33:26;;;;;;;5.63;2.78;;;;;;;26.85;39.72;98695.69;5061285;28;20052;-67
2021/07/31 11:36:13;;;;;;;4.00;3.33;;;;;;;26.84;37.42;98694.03;5062209;28;20300;-64
2021/07/31 11:39:01;;;;;;;3.20;2.83;;;;;;;26.85;38.36;98681.56;5059261;28;20060;-64
2021/07/31 11:41:47;;;;;;;4.93;2.88;;;;;;;26.84;37.99;98699.34;5060312;28;20021;-65
2021/07/31 11:44:35;;;;;;;4.10;2.78;;;;;;;26.80;38.24;98716.59;5060698;28;20033;-65
2021/07/31 11:47:30;;;;;;;7.85;3.25;;;;;;;26.66;38.78;98711.88;5062589;28;20029;-66
2021/07/31 11:50:16;;;;;;;6.40;2.80;;;;;;;26.43;38.85;98714.25;5061609;28;20040;-65
2021/07/31 11:53:22;;;;;;;8.85;2.92;;;;;;;26.27;38.08;98707.88;5061880;28;20256;-67
2021/07/31 11:56:12;;;;;;;5.70;2.63;;;;;;;26.55;39.20;98710.34;5058598;28;20084;-67
2021/07/31 11:58:59;;;;;;;4.07;2.97;;;;;;;26.61;39.36;98704.38;5059792;28;20326;-67
2021/07/31 12:01:48;;;;;;;9.30;3.22;;;;;;;26.53;38.41;98714.97;5061537;28;20025;-68
2021/07/31 12:04:40;;;;;;;8.80;3.03;;;;;;;26.47;39.42;98715.63;5061717;28;20021;-66
2021/07/31 12:07:26;;;;;;;9.35;3.40;;;;;;;26.61;38.96;98717.66;5054010;28;20017;-64
2021/07/31 12:10:13;;;;;;;6.38;2.80;;;;;;;26.64;39.12;98721.81;5062162;28;20245;-59
2021/07/31 12:13:09;;;;;;;9.60;3.00;;;;;;;26.65;39.56;98712.84;5060957;28;20044;-74
2021/07/31 12:15:55;;;;;;;6.85;2.85;;;;;;;26.72;39.23;98718.38;5060557;28;20037;-71
2021/07/31 12:18:51;;;;;;;5.28;2.65;;;;;;;26.63;39.32;98717.50;5060935;28;20025;-70
2021/07/31 12:21:37;;;;;;;4.78;2.70;;;;;;;26.65;39.50;98713.69;5057090;28;20025;-73
2021/07/31 12:24:23;;;;;;;5.47;3.15;;;;;;;26.64;38.88;98712.03;5061167;28;20017;-74
2021/07/31 12:27:09;;;;;;;3.40;2.75;;;;;;;26.59;39.66;98716.16;5065622;28;20032;-70
2021/07/31 12:29:54;;;;;;;4.75;2.47;;;;;;;26.70;39.07;98724.69;5065693;28;20195;-77
2021/07/31 12:32:44;;;;;;;4.40;2.80;;;;;;;26.62;39.03;98708.72;5065149;28;20043;-71
2021/07/31 12:35:31;;;;;;;5.05;2.78;;;;;;;26.77;39.50;98721.41;5065523;28;20021;-70
2021/07/31 12:38:24;;;;;;;5.35;2.63;;;;;;;26.76;39.29;98730.38;5064638;28;20032;-73
2021/07/31 12:41:10;;;;;;;7.43;2.58;;;;;;;26.59;40.03;98722.28;5064984;28;20040;-73
2021/07/31 12:43:56;;;;;;;5.82;3.15;;;;;;;26.58;39.71;98723.31;5065257;28;20029;-65
2021/07/31 12:46:42;;;;;;;6.93;2.60;;;;;;;26.50;39.30;98729.38;5060301;28;20082;-71
2021/07/31 12:49:28;;;;;;;6.15;3.30;;;;;;;26.53;39.32;98725.59;5064775;28;20071;-75
2021/07/31 12:52:14;;;;;;;7.07;3.13;;;;;;;26.43;40.29;98728.34;5064787;28;20108;-74
2021/07/31 12:55:00;;;;;;;8.07;3.03;;;;;;;26.46;39.41;98724.56;5064286;28;20032;-68
2021/07/31 12:57:47;;;;;;;7.18;2.70;;;;;;;26.25;38.82;98727.59;5064285;28;20025;-67
2021/07/31 13:00:34;;;;;;;4.68;2.85;;;;;;;26.42;39.66;98739.16;5065091;28;20024;-69
2021/07/31 13:03:21;;;;;;;14.55;3.10;;;;;;;26.33;39.17;98735.63;5064486;28;20028;-69